Los Angeles, CA (90002)

9:11 PM PST on February 21, 2017 (GMT -0800)
Victoria Ave Elementary | | Change Station
Active Advisory: High Surf Advisory Active Notice: High Surf Advisory

Elev 125 ft 33.95 °N, 118.21 °W | Updated 6 minutes ago

Mostly Cloudy
Mostly Cloudy
60.0 °F
Feels Like 60.0 °F
N
0.0
Wind Variable Wind from West
Gusts 4.0 mph

Today
High -- | Low -- °F
--% Chance of Precip.
Yesterday
High -- | Low -- °F
Precip. -- in
Pressure 30.23 in
Visibility 10.0 miles
Clouds Mostly Cloudy 6000 ft
Dew Point 56 °F
Humidity 87%
Rainfall 0.02 in
Snow Depth Not available.
6:30 AM 5:42 PM
Waning Crescent, 20% visible
METAR KHHR 220453Z 29003KT 10SM BKN060 16/14 A3023 RMK AO2 SLP237 T01560139
Pressure 30.23 in
Visibility 10.0 miles
Clouds Mostly Cloudy 6000 ft
Dew Point 56 °F
Humidity 87%
Rainfall 0.02 in
Snow Depth Not available.
6:30 AM 5:42 PM
Waning Crescent, 20% visible
METAR KHHR 220453Z 29003KT 10SM BKN060 16/14 A3023 RMK AO2 SLP237 T01560139

Get Your Daily Forecast Email!

Thanks for signing up!

Be on the lookout for a verification email in your inbox.

You'll start receiving the daily forecast at 8 AM.

×

10-Day Weather Forecast

Almanac

Astronomy

Feb. 21, 2017 Rise Set
Actual Time
Civil Twilight
Nautical Twilight
Astronomical Twilight
Moon
Length of Visible Light
Length of Day
Tomorrow will be .
, % of the Moon is Illuminated

Today's Extremes

State Highs State Lows

Community

WunderPhotos

Upload Photos

1,962,540 photos uploaded!

WunderBlog® & News

Nearby

Air Quality

  Air Quality AQ Index Pollutant
Not available.

Snow Depth

Station Depth Elevation

Earthquake Activity

City Distance Mag. Time & Date
Minimum magnitude displayed is 2.5.

Coastal Water Temperatures

Place Temperature

Stations

Nearby Weather Stations

Station Location Temp. Windchill Dew Point Humidity Wind Precip. Elev Updated Type
                   

Watches & Warnings

High Surf Advisory
Issued: 2:10 PM PST Feb. 21, 2017 – National Weather Service

... High surf advisory in effect from noon Wednesday to 9 PM PST
Thursday...

The National Weather Service in Los Angeles/Oxnard has issued a
high surf advisory, which is in effect from noon Wednesday to
9 PM PST Thursday.

* Surf... high surf of 6 to 10 feet will develop on Wednesday and
continue into late Thursday. Surf will be highest on west facing
beaches.

* Impacts... large waves and strong rip currents will increase
the risk of ocean drowning for swimmers and surfers. Large
breaking waves can cause injury... wash people off beaches and
rocks... and capsize small boats nearshore.

Precautionary/preparedness actions...

A high surf advisory means that high surf will affect beaches in
the advisory area... producing localized beach erosion and
dangerous swimming conditions.